createdAt,value
2023-03-20T00:02:06.953Z,7.95
2023-03-20T00:04:34.639Z,8.25
2023-03-20T00:07:01.706Z,8.82
2023-03-20T00:09:28.672Z,7.68
2023-03-20T00:11:56.126Z,6.53
2023-03-20T00:14:25.033Z,6.22
2023-03-20T00:16:52.764Z,6.47
2023-03-20T00:19:29.322Z,6.22
2023-03-20T00:21:57.656Z,6.63
2023-03-20T00:24:25.502Z,6.63
2023-03-20T00:26:53.668Z,6.55
2023-03-20T00:29:31.017Z,7.03
2023-03-20T00:31:59.202Z,7.03
2023-03-20T00:34:32.662Z,7.63
2023-03-20T00:37:00.207Z,7.05
2023-03-20T00:39:29.978Z,6.38
2023-03-20T00:42:01.825Z,7.57
2023-03-20T00:44:44.324Z,6.93
2023-03-20T00:47:30.483Z,6.30
2023-03-20T00:52:25.396Z,7.05
2023-03-20T00:54:52.828Z,8.23
2023-03-20T00:57:37.103Z,6.70
2023-03-20T01:00:13.586Z,8.43
2023-03-20T01:02:40.737Z,7.25
2023-03-20T01:05:08.241Z,8.05
2023-03-20T01:07:35.278Z,7.57
2023-03-20T01:10:04.183Z,8.27
2023-03-20T01:12:31.445Z,7.50
2023-03-20T01:14:59.664Z,7.53
2023-03-20T01:17:29.412Z,7.28
2023-03-20T01:19:56.548Z,7.57
2023-03-20T01:22:23.574Z,8.27
2023-03-20T01:24:50.580Z,8.60
2023-03-20T01:27:20.321Z,7.35
2023-03-20T01:29:47.722Z,7.72
2023-03-20T01:32:19.309Z,7.60
2023-03-20T01:34:49.007Z,7.60
2023-03-20T01:37:28.150Z,8.00
2023-03-20T01:39:59.779Z,8.45
2023-03-20T01:42:27.051Z,9.52
2023-03-20T01:44:54.232Z,10.82
2023-03-20T01:47:25.926Z,10.52
2023-03-20T01:50:26.215Z,11.65
2023-03-20T01:53:23.681Z,11.80
2023-03-20T01:56:01.862Z,9.65
2023-03-20T01:58:48.820Z,9.95
2023-03-20T02:01:16.700Z,9.63
2023-03-20T02:03:50.741Z,9.40
2023-03-20T02:06:33.579Z,9.35
2023-03-20T02:09:13.416Z,8.55
2023-03-20T02:11:45.496Z,8.48
2023-03-20T02:14:13.832Z,8.32
2023-03-20T02:16:50.788Z,8.40
2023-03-20T02:20:16.018Z,9.90
2023-03-20T02:23:16.683Z,8.65
2023-03-20T02:26:02.649Z,9.35
2023-03-20T02:29:19.137Z,9.20
2023-03-20T02:32:23.106Z,7.93
2023-03-20T02:35:20.971Z,8.02
2023-03-20T02:37:59.911Z,8.50
2023-03-20T02:40:45.904Z,7.57
2023-03-20T02:43:39.344Z,7.47
2023-03-20T02:46:46.141Z,7.43
2023-03-20T02:50:14.341Z,5.82
2023-03-20T02:52:50.745Z,5.38
2023-03-20T02:55:34.830Z,5.80
2023-03-20T02:58:16.589Z,5.25
2023-03-20T03:01:15.081Z,5.50
2023-03-20T03:04:10.643Z,5.90
2023-03-20T03:06:41.798Z,4.80
2023-03-20T03:09:25.688Z,5.35
2023-03-20T03:11:59.687Z,4.90
2023-03-20T03:14:43.852Z,5.15
2023-03-20T03:17:18.261Z,4.95
2023-03-20T03:19:51.344Z,5.10
2023-03-20T03:22:19.434Z,5.57
2023-03-20T03:24:50.900Z,4.65
2023-03-20T03:27:34.550Z,4.50
2023-03-20T03:30:16.527Z,3.75
2023-03-20T03:32:51.780Z,3.47
2023-03-20T03:35:22.172Z,4.20
2023-03-20T03:38:23.048Z,3.63
2023-03-20T03:40:58.299Z,3.67
2023-03-20T03:43:51.270Z,3.10
2023-03-20T03:46:47.259Z,3.05
2023-03-20T03:49:22.219Z,3.05
2023-03-20T03:51:57.626Z,2.80
2023-03-20T03:54:42.569Z,3.30
2023-03-20T03:57:50.933Z,3.25
2023-03-20T04:00:23.791Z,3.17
2023-03-20T04:02:56.174Z,3.28
2023-03-20T04:05:26.740Z,2.95
2023-03-20T04:07:56.815Z,2.88
2023-03-20T04:10:24.000Z,3.28
2023-03-20T04:12:51.249Z,4.45
2023-03-20T04:15:20.294Z,3.40
2023-03-20T04:17:47.640Z,5.47
2023-03-20T04:20:16.647Z,4.25
2023-03-20T04:22:43.697Z,3.95
2023-03-20T04:25:20.329Z,3.45
2023-03-20T04:30:24.473Z,3.83
2023-03-20T04:33:10.722Z,5.15
2023-03-20T04:35:46.677Z,4.32
2023-03-20T04:38:16.527Z,4.45
2023-03-20T04:40:45.402Z,4.82
2023-03-20T04:43:13.248Z,5.43
2023-03-20T04:45:41.404Z,5.18
2023-03-20T04:48:09.668Z,5.55
2023-03-20T04:50:37.131Z,5.57
2023-03-20T04:53:04.889Z,6.15
2023-03-20T04:55:32.221Z,5.43
2023-03-20T04:57:59.836Z,6.60
2023-03-20T05:00:28.266Z,6.22
2023-03-20T05:02:55.221Z,6.22
2023-03-20T05:05:23.701Z,6.70
2023-03-20T05:07:52.381Z,5.55
2023-03-20T05:10:33.409Z,7.20
2023-03-20T05:13:06.845Z,5.75
2023-03-20T05:15:52.703Z,8.07
2023-03-20T05:18:43.856Z,6.85
2023-03-20T05:24:09.728Z,7.88
2023-03-20T05:26:36.753Z,8.25
2023-03-20T05:29:19.608Z,9.55
2023-03-20T05:32:06.112Z,9.88
2023-03-20T05:34:59.457Z,11.23
2023-03-20T05:37:43.398Z,10.38
2023-03-20T05:40:24.205Z,9.30
2023-03-20T05:43:17.477Z,10.25
2023-03-20T05:46:18.632Z,10.40
2023-03-20T05:48:59.603Z,10.23
2023-03-20T05:51:43.105Z,11.73
2023-03-20T05:54:18.617Z,11.80
2023-03-20T05:57:02.052Z,11.27
2023-03-20T05:59:55.371Z,11.77
2023-03-20T06:02:47.356Z,9.70
2023-03-20T06:05:46.917Z,10.38
2023-03-20T06:08:18.281Z,10.23
2023-03-20T06:10:45.920Z,9.88
2023-03-20T06:13:12.986Z,9.45
2023-03-20T06:15:40.706Z,9.13
2023-03-20T06:18:14.824Z,11.07
2023-03-20T06:20:41.855Z,9.82
2023-03-20T06:23:09.421Z,8.82
2023-03-20T06:25:36.663Z,7.38
2023-03-20T06:28:05.889Z,8.30
2023-03-20T06:30:33.507Z,8.65
2023-03-20T06:33:00.886Z,8.15
2023-03-20T06:35:37.811Z,7.80
2023-03-20T06:38:05.041Z,7.50
2023-03-20T06:40:32.622Z,7.95
2023-03-20T06:42:59.857Z,9.27
2023-03-20T06:45:36.978Z,7.90
2023-03-20T06:48:11.333Z,8.20
2023-03-20T06:50:38.992Z,6.45
2023-03-20T06:53:06.837Z,7.05
2023-03-20T06:55:41.498Z,8.07
2023-03-20T06:58:08.465Z,6.50
2023-03-20T07:00:37.723Z,6.93
2023-03-20T07:03:06.722Z,7.68
2023-03-20T07:05:34.189Z,7.15
2023-03-20T07:08:05.109Z,7.40
2023-03-20T07:10:32.161Z,6.93
2023-03-20T07:12:59.156Z,7.47
2023-03-20T07:15:27.289Z,6.30
2023-03-20T07:17:54.314Z,6.28
2023-03-20T07:20:21.735Z,7.22
2023-03-20T07:22:50.494Z,7.40
2023-03-20T07:25:31.943Z,8.80
2023-03-20T07:28:07.016Z,6.68
2023-03-20T07:30:35.755Z,7.47
2023-03-20T07:33:02.874Z,6.70
2023-03-20T07:35:32.395Z,7.93
2023-03-20T07:37:59.631Z,8.20
2023-03-20T07:40:27.265Z,6.90
2023-03-20T07:42:57.588Z,6.72
2023-03-20T07:46:07.052Z,8.23
2023-03-20T07:48:36.284Z,7.93
2023-03-20T07:51:03.659Z,7.05
2023-03-20T07:53:30.748Z,6.47
2023-03-20T07:55:58.168Z,7.13
2023-03-20T07:58:25.461Z,6.70
2023-03-20T08:00:52.946Z,6.53
2023-03-20T08:03:20.598Z,6.65
2023-03-20T08:05:48.020Z,6.53
2023-03-20T08:08:15.475Z,6.38
2023-03-20T08:10:43.529Z,5.88
2023-03-20T08:13:13.709Z,6.63
2023-03-20T08:15:41.166Z,6.60
2023-03-20T08:18:08.665Z,5.53
2023-03-20T08:20:36.178Z,7.00
2023-03-20T08:23:03.334Z,7.00
2023-03-20T08:25:33.764Z,6.93
2023-03-20T08:28:05.134Z,7.22
2023-03-20T08:30:32.693Z,7.03
2023-03-20T08:32:59.941Z,6.07
2023-03-20T08:35:33.368Z,6.50
2023-03-20T08:38:01.831Z,6.18
2023-03-20T08:40:29.766Z,6.93
2023-03-20T08:42:57.177Z,6.35
2023-03-20T08:45:27.097Z,6.53
2023-03-20T08:47:55.340Z,6.05
2023-03-20T08:50:22.993Z,5.72
2023-03-20T08:52:50.274Z,6.30
2023-03-20T08:55:18.066Z,6.28
2023-03-20T08:57:47.034Z,5.97
2023-03-20T09:00:16.124Z,6.55
2023-03-20T09:02:44.191Z,6.50
2023-03-20T09:05:11.704Z,5.93
2023-03-20T09:07:39.592Z,5.75
2023-03-20T09:10:07.745Z,7.85
2023-03-20T09:12:36.016Z,5.00
2023-03-20T09:15:06.945Z,5.20
2023-03-20T09:17:34.218Z,6.65
2023-03-20T09:20:01.287Z,5.43
2023-03-20T09:22:28.503Z,5.15
2023-03-20T09:24:55.800Z,4.90
2023-03-20T09:27:23.225Z,4.88
2023-03-20T09:29:50.584Z,5.47
2023-03-20T09:32:17.920Z,5.50
2023-03-20T09:34:45.163Z,4.72
2023-03-20T09:37:12.448Z,6.22
2023-03-20T09:39:40.076Z,4.60
2023-03-20T09:42:49.094Z,4.38
2023-03-20T09:45:55.119Z,4.38
2023-03-20T09:48:44.942Z,4.70
2023-03-20T09:51:41.623Z,4.47
2023-03-20T09:56:51.568Z,4.18
2023-03-20T09:59:20.743Z,3.60
2023-03-20T10:02:08.562Z,3.90
2023-03-20T10:04:37.021Z,3.75
2023-03-20T10:07:06.344Z,3.38
2023-03-20T10:09:36.389Z,3.60
2023-03-20T10:12:49.078Z,3.70
2023-03-20T10:16:02.522Z,2.88
2023-03-20T10:18:34.304Z,3.65
2023-03-20T10:21:18.812Z,4.50
2023-03-20T10:23:56.456Z,4.03
2023-03-20T10:26:24.663Z,4.03
2023-03-20T10:29:02.306Z,4.18
2023-03-20T10:31:49.754Z,3.72
2023-03-20T10:34:42.198Z,3.15
2023-03-20T10:37:33.741Z,3.33
2023-03-20T10:40:42.402Z,3.60
2023-03-20T10:43:21.732Z,4.05
2023-03-20T10:46:11.878Z,3.88
2023-03-20T10:48:41.850Z,4.40
2023-03-20T10:51:22.816Z,3.72
2023-03-20T10:54:01.422Z,4.15
2023-03-20T10:56:43.839Z,3.63
2023-03-20T10:59:33.664Z,3.70
2023-03-20T11:02:04.163Z,3.03
2023-03-20T11:04:31.539Z,3.00
2023-03-20T11:07:12.311Z,2.75
2023-03-20T11:09:39.690Z,3.63
2023-03-20T11:12:18.185Z,3.45
2023-03-20T11:14:46.179Z,3.33
2023-03-20T11:17:13.749Z,2.60
2023-03-20T11:19:42.626Z,2.97
2023-03-20T11:22:21.936Z,2.70
2023-03-20T11:24:56.130Z,2.63
2023-03-20T11:27:30.676Z,2.33
2023-03-20T11:30:01.491Z,2.47
2023-03-20T11:32:36.081Z,2.53
2023-03-20T11:35:31.303Z,2.22
2023-03-20T11:38:21.242Z,2.72
2023-03-20T11:40:52.646Z,2.25
2023-03-20T11:43:28.428Z,1.98
2023-03-20T11:46:00.253Z,2.30
2023-03-20T11:48:42.660Z,2.45
2023-03-20T11:51:17.365Z,2.67
2023-03-20T11:53:48.308Z,2.72
2023-03-20T11:56:24.193Z,2.33
2023-03-20T11:59:09.713Z,2.85
2023-03-20T12:01:46.954Z,2.35
2023-03-20T12:04:20.100Z,2.25
2023-03-20T12:07:19.399Z,2.58
2023-03-20T12:09:59.080Z,3.92
2023-03-20T12:12:46.002Z,2.83
2023-03-20T12:15:13.224Z,2.80
2023-03-20T12:18:20.969Z,2.63
2023-03-20T12:21:20.071Z,3.25
2023-03-20T12:24:05.066Z,3.08
2023-03-20T12:27:29.565Z,3.03
2023-03-20T12:30:14.697Z,3.72
2023-03-20T12:33:15.688Z,3.80
2023-03-20T12:35:48.320Z,3.63
2023-03-20T12:38:33.118Z,2.30
2023-03-20T12:41:29.455Z,4.43
2023-03-20T12:44:42.363Z,3.75
2023-03-20T12:47:37.451Z,3.17
2023-03-20T12:50:31.868Z,3.72
2023-03-20T12:53:21.010Z,3.58
2023-03-20T12:56:22.005Z,3.92
2023-03-20T12:59:23.442Z,4.80
2023-03-20T13:02:17.551Z,4.70
2023-03-20T13:04:58.507Z,4.63
2023-03-20T13:08:20.444Z,4.25
2023-03-20T13:11:03.044Z,4.45
2023-03-20T13:13:43.264Z,4.85
2023-03-20T13:16:41.377Z,5.40
2023-03-20T13:19:36.485Z,5.10
2023-03-20T13:22:26.185Z,6.38
2023-03-20T13:25:09.710Z,6.00
2023-03-20T13:28:13.056Z,5.82
2023-03-20T13:30:57.520Z,5.82
2023-03-20T13:33:42.715Z,6.03
2023-03-20T13:36:23.072Z,6.40
2023-03-20T13:38:59.403Z,5.70
2023-03-20T13:41:27.256Z,6.03
2023-03-20T13:44:01.312Z,7.85
2023-03-20T13:47:00.152Z,6.55
2023-03-20T13:49:38.436Z,8.23
2023-03-20T13:52:11.371Z,7.20
2023-03-20T13:55:14.175Z,7.82
2023-03-20T13:58:07.303Z,7.10
2023-03-20T14:01:07.172Z,8.00
2023-03-20T14:03:38.876Z,6.78
2023-03-20T14:06:29.786Z,8.23
2023-03-20T14:08:58.744Z,6.78
2023-03-20T14:11:35.579Z,7.43
2023-03-20T14:14:33.664Z,8.27
2023-03-20T14:17:19.737Z,6.60
2023-03-20T14:22:30.895Z,6.97
2023-03-20T14:25:16.795Z,6.72
2023-03-20T14:28:27.644Z,6.45
2023-03-20T14:31:35.084Z,7.07
2023-03-20T14:34:15.962Z,6.88
2023-03-20T14:36:51.310Z,6.70
2023-03-20T14:39:30.872Z,6.72
2023-03-20T14:42:04.932Z,7.57
2023-03-20T14:45:08.807Z,6.40
2023-03-20T14:48:07.136Z,6.95
2023-03-20T14:51:25.229Z,7.05
2023-03-20T14:54:21.270Z,6.60
2023-03-20T14:56:52.370Z,7.88
2023-03-20T14:59:25.637Z,6.82
2023-03-20T15:01:53.199Z,7.50
2023-03-20T15:04:37.505Z,7.43
2023-03-20T15:07:16.730Z,9.18
2023-03-20T15:09:48.259Z,7.75
2023-03-20T15:12:21.436Z,7.95
2023-03-20T15:15:01.820Z,8.20
2023-03-20T15:17:40.868Z,7.75
2023-03-20T15:20:25.675Z,9.73
2023-03-20T15:23:00.097Z,8.77
2023-03-20T15:25:44.172Z,8.10
2023-03-20T15:28:23.565Z,8.98
2023-03-20T15:30:54.894Z,10.25
2023-03-20T15:33:42.960Z,9.38
2023-03-20T15:36:25.388Z,10.65
2023-03-20T15:38:52.914Z,10.45
2023-03-20T15:41:35.472Z,9.07
2023-03-20T15:44:14.595Z,8.60
2023-03-20T15:47:20.872Z,8.27
2023-03-20T15:49:58.053Z,9.45
2023-03-20T15:52:37.438Z,9.43
2023-03-20T15:55:20.044Z,10.30
2023-03-20T15:57:50.479Z,9.80
2023-03-20T16:00:25.258Z,9.23
2023-03-20T16:02:53.894Z,9.38
2023-03-20T16:05:25.670Z,10.23
2023-03-20T16:07:53.153Z,9.50
2023-03-20T16:10:29.015Z,9.48
2023-03-20T16:12:56.944Z,9.55
2023-03-20T16:15:28.141Z,10.10
2023-03-20T16:18:01.623Z,10.68
2023-03-20T16:20:45.179Z,8.98
2023-03-20T16:23:30.795Z,8.50
2023-03-20T16:26:03.723Z,8.45
2023-03-20T16:28:31.450Z,8.32
2023-03-20T16:31:21.266Z,8.27
2023-03-20T16:33:49.195Z,7.68
2023-03-20T16:36:21.011Z,7.88
2023-03-20T16:39:07.211Z,6.97
2023-03-20T16:44:20.334Z,8.00
2023-03-20T16:47:04.452Z,7.15
2023-03-20T16:49:52.778Z,8.68
2023-03-20T16:52:29.290Z,7.57
2023-03-20T16:55:00.537Z,7.75
2023-03-20T16:57:35.343Z,7.05
2023-03-20T17:00:30.533Z,8.60
2023-03-20T17:03:10.730Z,8.35
2023-03-20T17:05:47.506Z,8.32
2023-03-20T17:08:19.176Z,10.32
2023-03-20T17:10:54.888Z,9.70
2023-03-20T17:15:49.911Z,9.43
2023-03-20T17:18:17.202Z,11.20
2023-03-20T17:20:44.386Z,8.40
2023-03-20T17:23:22.296Z,9.23
2023-03-20T17:25:51.851Z,10.48
2023-03-20T17:28:24.401Z,10.15
2023-03-20T17:30:52.697Z,8.65
2023-03-20T17:33:21.301Z,8.70
2023-03-20T17:35:48.853Z,9.27
2023-03-20T17:38:21.984Z,8.45
2023-03-20T17:40:51.513Z,9.05
2023-03-20T17:43:20.426Z,8.50
2023-03-20T17:45:48.145Z,8.93
2023-03-20T17:48:20.866Z,7.85
2023-03-20T17:50:50.839Z,8.70
2023-03-20T17:53:24.239Z,9.45
2023-03-20T17:55:54.030Z,9.05
2023-03-20T17:58:23.708Z,8.70
2023-03-20T18:00:52.817Z,9.13
2023-03-20T18:03:21.364Z,8.50
2023-03-20T18:05:50.833Z,8.63
2023-03-20T18:08:21.383Z,9.57
2023-03-20T18:10:53.888Z,8.45
2023-03-20T18:13:23.353Z,8.57
2023-03-20T18:15:53.415Z,10.00
2023-03-20T18:18:23.831Z,9.07
2023-03-20T18:20:52.286Z,10.38
2023-03-20T18:23:19.337Z,10.65
2023-03-20T18:25:46.455Z,9.13
2023-03-20T18:28:20.746Z,9.82
2023-03-20T18:30:48.985Z,10.18
2023-03-20T18:33:16.629Z,9.65
2023-03-20T18:35:44.171Z,11.30
2023-03-20T18:38:14.013Z,10.55
2023-03-20T18:40:42.856Z,9.55
2023-03-20T18:43:10.975Z,10.05
2023-03-20T18:45:39.739Z,12.45
2023-03-20T18:48:07.404Z,10.65
2023-03-20T18:50:38.419Z,10.55
2023-03-20T18:53:07.936Z,9.88
2023-03-20T18:55:36.781Z,11.93
2023-03-20T18:58:06.196Z,11.18
2023-03-20T19:00:40.238Z,11.30
2023-03-20T19:03:09.026Z,11.15
2023-03-20T19:05:36.377Z,11.27
2023-03-20T19:08:04.130Z,11.90
2023-03-20T19:10:40.331Z,12.98
2023-03-20T19:13:07.952Z,13.18
2023-03-20T19:15:37.317Z,12.27
2023-03-20T19:18:33.347Z,12.45
2023-03-20T19:21:00.554Z,12.98
2023-03-20T19:23:29.161Z,13.20
2023-03-20T19:25:56.342Z,12.15
2023-03-20T19:28:39.106Z,13.75
2023-03-20T19:31:06.878Z,12.85
2023-03-20T19:33:34.414Z,12.98
2023-03-20T19:36:04.201Z,12.43
2023-03-20T19:38:32.452Z,14.02
2023-03-20T19:41:00.303Z,13.38
2023-03-20T19:43:29.009Z,14.43
2023-03-20T19:45:59.016Z,12.82
2023-03-20T19:48:46.222Z,14.27
2023-03-20T19:51:22.037Z,14.15
2023-03-20T19:53:50.217Z,13.75
2023-03-20T19:56:20.704Z,13.32
2023-03-20T19:58:51.276Z,15.05
2023-03-20T20:01:22.349Z,15.02
2023-03-20T20:03:50.574Z,15.15
2023-03-20T20:06:20.099Z,13.55
2023-03-20T20:08:49.623Z,15.10
2023-03-20T20:11:20.832Z,14.75
2023-03-20T20:14:05.566Z,15.18
2023-03-20T20:16:34.801Z,15.57
2023-03-20T20:19:02.401Z,15.85
2023-03-20T20:24:16.510Z,15.82
2023-03-20T20:26:54.370Z,15.57
2023-03-20T20:29:24.745Z,16.95
2023-03-20T20:31:52.143Z,18.75
2023-03-20T20:39:53.853Z,17.88
2023-03-20T20:42:21.540Z,17.88
2023-03-20T20:44:49.265Z,18.60
2023-03-20T20:47:17.368Z,21.50
2023-03-20T20:49:47.647Z,20.10
2023-03-20T20:52:16.274Z,21.02
2023-03-20T20:54:43.456Z,21.45
2023-03-20T20:57:12.212Z,21.30
2023-03-20T20:59:41.121Z,24.08
2023-03-20T21:02:15.539Z,21.00
2023-03-20T21:04:43.855Z,22.27
2023-03-20T21:07:13.032Z,21.77
2023-03-20T21:09:40.807Z,21.60
2023-03-20T21:12:10.335Z,24.08
2023-03-20T21:14:37.854Z,22.85
2023-03-20T21:17:06.127Z,25.08
2023-03-20T21:19:39.316Z,22.52
2023-03-20T21:22:09.740Z,24.08
2023-03-20T21:24:37.759Z,21.90
2023-03-20T21:27:12.766Z,23.05
2023-03-20T21:29:41.431Z,22.70
2023-03-20T21:32:10.266Z,21.23
2023-03-20T21:34:38.406Z,22.38
2023-03-20T21:38:08.685Z,23.70
2023-03-20T21:39:53.104Z,22.65
2023-03-20T21:42:21.417Z,21.52
2023-03-20T21:48:27.088Z,25.95
2023-03-20T21:50:50.199Z,23.67
2023-03-20T21:53:58.857Z,23.90
2023-03-20T21:56:40.095Z,24.23
2023-03-20T22:02:02.454Z,25.27
2023-03-20T22:05:09.781Z,24.60
2023-03-20T22:07:38.340Z,23.95
2023-03-20T22:16:28.490Z,24.58
2023-03-20T22:21:42.847Z,25.67
2023-03-20T22:24:43.499Z,26.15
2023-03-20T22:33:03.503Z,25.63
2023-03-20T22:38:36.843Z,25.13
2023-03-20T22:41:27.419Z,24.08
2023-03-20T22:46:36.375Z,24.90
2023-03-20T22:48:59.836Z,27.77
2023-03-20T22:51:34.335Z,25.23
2023-03-20T22:54:02.923Z,27.30
2023-03-20T22:56:29.925Z,25.70
2023-03-20T22:58:56.901Z,29.70
2023-03-20T23:01:24.054Z,28.67
2023-03-20T23:03:51.148Z,25.92
2023-03-20T23:06:24.830Z,26.15
2023-03-20T23:08:57.091Z,25.58
2023-03-20T23:11:28.752Z,27.60
2023-03-20T23:13:56.459Z,26.02
2023-03-20T23:16:23.701Z,26.67
2023-03-20T23:18:50.799Z,27.75
2023-03-20T23:21:18.041Z,28.77
2023-03-20T23:23:45.303Z,25.30
2023-03-20T23:26:14.191Z,26.25
2023-03-20T23:28:43.323Z,25.88
2023-03-20T23:31:17.908Z,26.30
2023-03-20T23:33:49.158Z,26.85
2023-03-20T23:36:34.614Z,24.17
2023-03-20T23:39:06.660Z,28.13
2023-03-20T23:42:04.632Z,26.42
2023-03-20T23:44:21.114Z,26.13
2023-03-20T23:46:48.452Z,25.83
2023-03-20T23:49:16.658Z,27.45
2023-03-20T23:51:44.098Z,25.58
2023-03-20T23:54:11.753Z,24.65
2023-03-20T23:56:39.109Z,24.75
2023-03-20T23:59:18.735Z,25.92
